Aérodrome :
LOGIN :

S'inscrire | Disclaimer

   EN    FR    IT 

 










Légende :    VFR   VFR Marginal   IFR   IFR Intensif   IFR Très Intensif
Visi : 
Plafond : 
>= 8 km
>= 3000ft
5 à 8 km
1000 à 3000 ft
1500m à 5 km
500 à 1000 ft
800 à 1500m
200 à 500 ft
< 800m
< 200 ft
Symboles :   Orages  Brouillard  Fortes neiges  Fortes précipitations  Vent > 20 kt
SIGMETs :   Divers  Orages  Givrage  Turbulence  Onde Orograph.  Cendres Volcan.






- Altitude de l'aérodrome : 640 ft
- Code IATA : AOC


EDAC - Altenburg-Nobitz

DERNIER METAR :
  • 191650Z 29004KT 9999 OVC021 20/16 Q1013

METARs EXPIRÉS :
  • 191620Z 29004KT 9999 OVC021 20/16 Q1012
  • 191550Z 29004KT 260V330 9999 OVC020 20/16 Q1013
  • 191450Z 29004KT 250V320 9999 OVC014 20/16 Q1013
  • 191420Z 24003KT 200V270 9999 BKN013 19/16 Q1013
  • 191350Z 27005KT 230V310 9999 BKN013 OVC037 19/16 Q1013

TAF TAF EDAC
Valide du 19 à 15h jusqu'au 20 à 00h UTC


191400Z 1915/1924 32007KT 9999 OVC013
BECMG 1915/1918 SCT015 BKN035



MET'MAP, la Météo Aéronautique d'un coup d'oeil ! - Copyright ORBIFLY Décembre 2007 - Disclaimer

ORBIFLY MET'MAP TEAM :

Programmation & Développement : Alexandra Zaïnal
Sur une idée originale de : Baudouin d'Aumeries
Soutien technique & logistique : Manuel Goepfert
Assistance : Marc-Olivier Méhu




SOURCES & CREDITS :

   NOAA